createdAt,value
2019-01-26T00:02:15.916Z,99155.13
2019-01-26T00:04:43.554Z,99157.80
2019-01-26T00:07:11.228Z,99157.62
2019-01-26T00:09:39.049Z,99155.08
2019-01-26T00:12:06.239Z,99151.28
2019-01-26T00:14:33.365Z,99141.92
2019-01-26T00:17:00.566Z,99142.39
2019-01-26T00:19:27.678Z,99141.39
2019-01-26T00:21:55.496Z,99140.11
2019-01-26T00:24:22.618Z,99137.96
2019-01-26T00:26:49.402Z,99136.60
2019-01-26T00:29:16.094Z,99128.31
2019-01-26T00:31:42.756Z,99123.84
2019-01-26T00:34:09.979Z,99122.45
2019-01-26T00:36:37.777Z,99117.84
2019-01-26T00:39:06.570Z,99109.02
2019-01-26T00:41:34.335Z,99111.98
2019-01-26T00:44:01.438Z,99106.23
2019-01-26T00:46:28.691Z,99104.52
2019-01-26T00:48:55.715Z,99110.23
2019-01-26T00:51:22.812Z,99099.16
2019-01-26T00:53:49.995Z,99103.78
2019-01-26T00:56:17.171Z,99102.36
2019-01-26T00:58:44.237Z,99100.16
2019-01-26T01:01:12.053Z,99098.20
2019-01-26T01:03:39.211Z,99103.08
2019-01-26T01:06:06.400Z,99101.05
2019-01-26T01:08:34.234Z,99101.44
2019-01-26T01:11:02.003Z,99101.30
2019-01-26T01:13:29.065Z,99097.30
2019-01-26T01:15:56.264Z,99093.61
2019-01-26T01:18:24.168Z,99095.75
2019-01-26T01:20:51.303Z,99092.47
2019-01-26T01:23:18.429Z,99088.67
2019-01-26T01:25:45.359Z,99085.02
2019-01-26T01:28:12.426Z,99080.02
2019-01-26T01:30:40.191Z,99068.55
2019-01-26T01:33:07.405Z,99070.80
2019-01-26T01:35:34.440Z,99065.52
2019-01-26T01:38:01.487Z,99056.94
2019-01-26T01:40:29.323Z,99052.73
2019-01-26T01:42:56.449Z,99047.11
2019-01-26T01:45:23.596Z,99045.86
2019-01-26T01:47:51.360Z,99043.74
2019-01-26T01:50:18.385Z,99038.67
2019-01-26T01:52:45.796Z,99033.77
2019-01-26T01:55:12.871Z,99030.41
2019-01-26T01:57:39.995Z,99030.72
2019-01-26T02:00:07.693Z,99023.78
2019-01-26T02:02:35.515Z,99016.88
2019-01-26T02:05:02.544Z,99014.55
2019-01-26T02:07:30.314Z,99011.24
2019-01-26T02:09:57.454Z,99010.85
2019-01-26T02:12:24.459Z,99005.53
2019-01-26T02:14:51.630Z,98999.86
2019-01-26T02:17:19.439Z,98996.72
2019-01-26T02:19:46.627Z,98993.94
2019-01-26T02:22:14.787Z,98989.13
2019-01-26T02:24:42.539Z,98976.52
2019-01-26T02:27:10.148Z,98972.86
2019-01-26T02:29:37.283Z,98961.41
2019-01-26T02:32:04.019Z,98957.40
2019-01-26T02:34:31.871Z,98950.98
2019-01-26T02:36:58.940Z,98948.03
2019-01-26T02:39:26.105Z,98938.97
2019-01-26T02:41:53.005Z,98936.15
2019-01-26T02:44:20.128Z,98932.44
2019-01-26T02:46:47.277Z,98931.09
2019-01-26T02:49:14.527Z,98922.70
2019-01-26T02:51:41.651Z,98923.15
2019-01-26T02:54:08.338Z,98917.93
2019-01-26T02:56:35.491Z,98917.83
2019-01-26T02:59:02.357Z,98919.81
2019-01-26T03:01:29.546Z,98908.12
2019-01-26T03:03:56.560Z,98905.06
2019-01-26T03:06:23.613Z,98897.34
2019-01-26T03:08:51.539Z,98900.64
2019-01-26T03:11:18.646Z,98892.67
2019-01-26T03:13:45.727Z,98890.51
2019-01-26T03:16:12.503Z,98886.00
2019-01-26T03:18:39.593Z,98886.85
2019-01-26T03:21:06.313Z,98882.62
2019-01-26T03:23:33.471Z,98877.67
2019-01-26T03:26:00.625Z,98877.87
2019-01-26T03:28:28.317Z,98870.55
2019-01-26T03:30:55.014Z,98867.13
2019-01-26T03:33:22.026Z,98866.53
2019-01-26T03:35:49.180Z,98860.64
2019-01-26T03:38:15.838Z,98856.59
2019-01-26T03:40:43.012Z,98854.19
2019-01-26T03:43:09.678Z,98848.02
2019-01-26T03:45:36.765Z,98842.85
2019-01-26T03:48:03.481Z,98839.82
2019-01-26T03:50:30.622Z,98835.23
2019-01-26T03:52:57.292Z,98829.71
2019-01-26T03:55:24.499Z,98825.40
2019-01-26T03:57:51.517Z,98824.88
2019-01-26T04:00:18.695Z,98822.55
2019-01-26T04:02:45.860Z,98815.67
2019-01-26T04:05:12.969Z,98815.07
2019-01-26T04:07:40.684Z,98814.11
2019-01-26T04:10:08.459Z,98812.67
2019-01-26T04:12:36.079Z,98808.82
2019-01-26T04:15:02.757Z,98802.87
2019-01-26T04:17:29.862Z,98798.39
2019-01-26T04:19:57.017Z,98799.61
2019-01-26T04:22:24.143Z,98786.56
2019-01-26T04:24:51.223Z,98786.97
2019-01-26T04:27:18.362Z,98781.20
2019-01-26T04:29:45.528Z,98769.47
2019-01-26T04:32:12.256Z,98771.64
2019-01-26T04:34:39.279Z,98770.95
2019-01-26T04:37:06.436Z,98764.76
2019-01-26T04:39:33.600Z,98763.36
2019-01-26T04:42:00.294Z,98759.02
2019-01-26T04:44:27.982Z,98751.16
2019-01-26T04:46:54.655Z,98750.70
2019-01-26T04:49:21.843Z,98742.78
2019-01-26T04:51:48.964Z,98739.28
2019-01-26T04:54:15.985Z,98733.56
2019-01-26T04:56:43.576Z,98731.73
2019-01-26T04:59:10.700Z,98727.94
2019-01-26T05:01:37.881Z,98724.67
2019-01-26T05:04:04.981Z,98721.61
2019-01-26T05:06:31.683Z,98717.72
2019-01-26T05:08:58.841Z,98715.38
2019-01-26T05:11:26.703Z,98711.73
2019-01-26T05:13:54.478Z,98706.55
2019-01-26T05:16:21.600Z,98696.89
2019-01-26T05:18:49.518Z,98697.25
2019-01-26T05:21:16.247Z,98690.91
2019-01-26T05:23:43.330Z,98687.88
2019-01-26T05:26:11.141Z,98687.03
2019-01-26T05:28:38.252Z,98681.78
2019-01-26T05:31:04.912Z,98678.30
2019-01-26T05:33:31.674Z,98672.25
2019-01-26T05:35:58.788Z,98668.94
2019-01-26T05:38:25.804Z,98659.80
2019-01-26T05:40:52.973Z,98652.73
2019-01-26T05:43:20.808Z,98666.15
2019-01-26T05:45:48.552Z,98655.16
2019-01-26T05:48:15.661Z,98657.67
2019-01-26T05:50:42.780Z,98659.92
2019-01-26T05:53:09.975Z,98661.58
2019-01-26T05:55:37.862Z,98649.97
2019-01-26T05:58:05.632Z,98648.61
2019-01-26T06:00:32.940Z,98639.05
2019-01-26T06:02:59.736Z,98634.88
2019-01-26T06:05:26.834Z,98635.69
2019-01-26T06:07:53.976Z,98625.96
2019-01-26T06:10:21.213Z,98624.36
2019-01-26T06:12:48.309Z,98614.69
2019-01-26T06:15:15.040Z,98612.24
2019-01-26T06:17:42.953Z,98608.53
2019-01-26T06:20:09.632Z,98607.58
2019-01-26T06:22:36.782Z,98608.86
2019-01-26T06:25:03.941Z,98608.63
2019-01-26T06:27:31.740Z,98610.83
2019-01-26T06:29:58.401Z,98609.98
2019-01-26T06:32:25.150Z,98603.48
2019-01-26T06:34:53.000Z,98600.90
2019-01-26T06:37:20.089Z,98598.78
2019-01-26T06:39:47.343Z,98607.56
2019-01-26T06:42:14.499Z,98600.05
2019-01-26T06:44:41.663Z,98597.69
2019-01-26T06:47:08.780Z,98596.53
2019-01-26T06:49:35.936Z,98594.69
2019-01-26T06:52:02.753Z,98588.50
2019-01-26T06:54:30.493Z,98589.25
2019-01-26T06:56:57.189Z,98592.09
2019-01-26T06:59:24.373Z,98594.19
2019-01-26T07:01:51.159Z,98599.67
2019-01-26T07:04:17.873Z,98591.20
2019-01-26T07:06:44.553Z,98587.65
2019-01-26T07:09:12.254Z,98593.22
2019-01-26T07:11:39.365Z,98594.02
2019-01-26T07:14:07.208Z,98583.84
2019-01-26T07:16:33.989Z,98577.80
2019-01-26T07:19:01.159Z,98578.91
2019-01-26T07:21:27.870Z,98571.84
2019-01-26T07:23:55.045Z,98562.55
2019-01-26T07:26:21.682Z,98564.80
2019-01-26T07:28:48.819Z,98558.09
2019-01-26T07:31:15.559Z,98560.30
2019-01-26T07:33:42.706Z,98563.11
2019-01-26T07:36:09.398Z,98558.47
2019-01-26T07:38:36.603Z,98546.14
2019-01-26T07:41:03.779Z,98548.58
2019-01-26T07:43:30.933Z,98555.02
2019-01-26T07:45:58.553Z,98545.06
2019-01-26T07:48:25.269Z,98533.93
2019-01-26T07:50:52.336Z,98529.31
2019-01-26T07:53:19.430Z,98521.38
2019-01-26T07:55:46.227Z,98521.72
2019-01-26T07:58:13.366Z,98516.14
2019-01-26T08:00:40.561Z,98513.78
2019-01-26T08:03:07.739Z,98513.45
2019-01-26T08:05:34.389Z,98510.02
2019-01-26T08:08:02.035Z,98508.02
2019-01-26T08:10:28.713Z,98498.11
2019-01-26T08:12:56.539Z,98498.25
2019-01-26T08:15:23.639Z,98491.80
2019-01-26T08:17:50.688Z,98488.69
2019-01-26T08:20:17.861Z,98475.99
2019-01-26T08:22:44.991Z,98469.61
2019-01-26T08:25:12.631Z,98467.16
2019-01-26T08:27:39.751Z,98467.97
2019-01-26T08:30:06.491Z,98461.45
2019-01-26T08:32:33.260Z,98462.44
2019-01-26T08:35:00.174Z,98466.12
2019-01-26T08:37:26.883Z,98466.03
2019-01-26T08:39:53.611Z,98469.27
2019-01-26T08:42:20.775Z,98475.42
2019-01-26T08:44:48.024Z,98467.14
2019-01-26T08:47:14.673Z,98468.94
2019-01-26T08:49:41.394Z,98464.34
2019-01-26T08:52:08.541Z,98466.61
2019-01-26T08:54:35.585Z,98465.55
2019-01-26T08:57:02.286Z,98460.59
2019-01-26T08:59:29.380Z,98457.49
2019-01-26T09:01:56.406Z,98469.81
2019-01-26T09:04:23.576Z,98464.02
2019-01-26T09:06:50.626Z,98453.15
2019-01-26T09:09:17.807Z,98460.13
2019-01-26T09:11:44.933Z,98453.37
2019-01-26T09:14:12.100Z,98451.72
2019-01-26T09:16:39.231Z,98441.27
2019-01-26T09:19:05.993Z,98439.70
2019-01-26T09:21:32.647Z,98437.76
2019-01-26T09:23:59.755Z,98433.89
2019-01-26T09:26:26.525Z,98438.35
2019-01-26T09:28:53.522Z,98434.11
2019-01-26T09:31:20.602Z,98434.08
2019-01-26T09:33:47.529Z,98431.94
2019-01-26T09:36:14.264Z,98431.28
2019-01-26T09:38:40.950Z,98422.58
2019-01-26T09:41:08.048Z,98424.67
2019-01-26T09:43:35.115Z,98423.25
2019-01-26T09:46:01.821Z,98416.11
2019-01-26T09:48:28.558Z,98416.67
2019-01-26T09:50:55.652Z,98410.81
2019-01-26T09:53:22.354Z,98412.72
2019-01-26T09:55:49.113Z,98404.75
2019-01-26T09:58:16.252Z,98402.87
2019-01-26T10:00:43.301Z,98394.39
2019-01-26T10:03:10.466Z,98393.20
2019-01-26T10:05:37.177Z,98395.73
2019-01-26T10:08:04.244Z,98394.22
2019-01-26T10:10:31.441Z,98385.41
2019-01-26T10:12:58.157Z,98384.17
2019-01-26T10:15:25.188Z,98384.86
2019-01-26T10:17:52.362Z,98381.12
2019-01-26T10:20:19.521Z,98381.42
2019-01-26T10:22:46.650Z,98368.93
2019-01-26T10:25:13.829Z,98365.48
2019-01-26T10:27:40.693Z,98360.70
2019-01-26T10:30:07.893Z,98358.10
2019-01-26T10:32:34.936Z,98355.87
2019-01-26T10:35:02.165Z,98351.04
2019-01-26T10:37:28.905Z,98355.11
2019-01-26T10:39:55.566Z,98346.56
2019-01-26T10:42:22.613Z,98340.34
2019-01-26T10:44:49.831Z,98344.74
2019-01-26T10:47:16.960Z,98335.49
2019-01-26T10:49:44.080Z,98338.48
2019-01-26T10:52:10.802Z,98332.57
2019-01-26T10:54:38.642Z,98330.77
2019-01-26T10:57:05.389Z,98329.67
2019-01-26T10:59:32.495Z,98329.77
2019-01-26T11:01:59.498Z,98327.89
2019-01-26T11:04:26.267Z,98332.12
2019-01-26T11:06:52.989Z,98331.78
2019-01-26T11:09:20.149Z,98318.75
2019-01-26T11:11:46.920Z,98316.27
2019-01-26T11:14:13.582Z,98316.97
2019-01-26T11:16:40.355Z,98314.17
2019-01-26T11:19:07.931Z,98313.48
2019-01-26T11:21:35.496Z,98311.49
2019-01-26T11:24:02.269Z,98316.17
2019-01-26T11:26:28.954Z,98313.97
2019-01-26T11:28:56.023Z,98303.54
2019-01-26T11:31:22.773Z,98303.45
2019-01-26T11:33:49.918Z,98298.80
2019-01-26T11:36:17.111Z,98291.88
2019-01-26T11:38:44.399Z,98292.15
2019-01-26T11:41:11.143Z,98285.72
2019-01-26T11:43:37.841Z,98280.84
2019-01-26T11:46:04.491Z,98275.01
2019-01-26T11:48:31.320Z,98273.53
2019-01-26T11:50:58.420Z,98276.89
2019-01-26T11:53:25.479Z,98271.87
2019-01-26T11:55:52.622Z,98267.77
2019-01-26T11:58:19.692Z,98263.02
2019-01-26T12:00:46.855Z,98261.05
2019-01-26T12:03:13.961Z,98267.97
2019-01-26T12:05:40.661Z,98261.87
2019-01-26T12:08:07.770Z,98262.97
2019-01-26T12:10:35.148Z,98259.31
2019-01-26T12:13:02.269Z,98252.27
2019-01-26T12:15:29.326Z,98252.72
2019-01-26T12:17:56.465Z,98252.59
2019-01-26T12:20:23.496Z,98252.66
2019-01-26T12:22:50.559Z,98246.88
2019-01-26T12:25:17.269Z,98250.88
2019-01-26T12:27:44.351Z,98248.47
2019-01-26T12:30:11.069Z,98241.27
2019-01-26T12:32:37.781Z,98240.63
2019-01-26T12:35:04.511Z,98239.47
2019-01-26T12:37:31.186Z,98242.41
2019-01-26T12:39:58.386Z,98240.27
2019-01-26T12:42:25.492Z,98231.23
2019-01-26T12:44:52.222Z,98235.13
2019-01-26T12:47:18.867Z,98232.66
2019-01-26T12:49:46.020Z,98230.06
2019-01-26T12:52:13.073Z,98231.91
2019-01-26T12:54:39.730Z,98231.09
2019-01-26T12:57:06.983Z,98236.59
2019-01-26T12:59:34.135Z,98232.97
2019-01-26T13:02:00.829Z,98222.84
2019-01-26T13:04:28.078Z,98231.97
2019-01-26T13:06:55.172Z,98232.42
2019-01-26T13:09:22.989Z,98226.03
2019-01-26T13:11:50.220Z,98218.39
2019-01-26T13:14:17.988Z,98219.27
2019-01-26T13:16:45.107Z,98217.27
2019-01-26T13:19:12.319Z,98215.42
2019-01-26T13:21:39.902Z,98220.14
2019-01-26T13:24:06.628Z,98220.57
2019-01-26T13:26:33.710Z,98217.96
2019-01-26T13:29:00.856Z,98224.83
2019-01-26T13:31:28.035Z,98221.33
2019-01-26T13:33:55.160Z,98215.42
2019-01-26T13:36:22.315Z,98217.44
2019-01-26T13:38:50.882Z,98217.08
2019-01-26T13:41:17.587Z,98225.08
2019-01-26T13:43:44.781Z,98221.53
2019-01-26T13:46:11.928Z,98223.37
2019-01-26T13:48:39.755Z,98220.08
2019-01-26T13:51:12.962Z,98220.27
2019-01-26T13:53:39.502Z,98223.27
2019-01-26T13:56:03.499Z,98219.98
2019-01-26T13:58:30.625Z,98220.50
2019-01-26T14:00:57.306Z,98230.79
2019-01-26T14:03:25.309Z,98228.45
2019-01-26T14:05:52.027Z,98228.84
2019-01-26T14:08:19.213Z,98229.73
2019-01-26T14:10:46.432Z,98226.07
2019-01-26T14:13:13.528Z,98228.25
2019-01-26T14:15:40.226Z,98228.17
2019-01-26T14:18:07.336Z,98236.18
2019-01-26T14:20:34.022Z,98233.87
2019-01-26T14:23:00.744Z,98232.05
2019-01-26T14:25:27.473Z,98231.66
2019-01-26T14:27:54.555Z,98233.27
2019-01-26T14:30:21.275Z,98236.53
2019-01-26T14:32:52.475Z,98234.88
2019-01-26T14:35:16.316Z,98232.91
2019-01-26T14:37:43.013Z,98228.42
2019-01-26T14:40:10.145Z,98244.04
2019-01-26T14:42:37.311Z,98241.53
2019-01-26T14:45:04.444Z,98242.69
2019-01-26T14:50:23.356Z,98247.37
2019-01-26T14:52:50.489Z,98245.41
2019-01-26T14:55:17.539Z,98240.77
2019-01-26T14:57:44.571Z,98236.50
2019-01-26T15:00:11.620Z,98241.52
2019-01-26T15:02:38.819Z,98245.75
2019-01-26T15:05:05.935Z,98247.37
2019-01-26T15:07:32.980Z,98254.95
2019-01-26T15:09:59.668Z,98256.70
2019-01-26T15:12:26.911Z,98258.05
2019-01-26T15:14:53.560Z,98259.23
2019-01-26T15:17:20.263Z,98257.32
2019-01-26T15:19:47.382Z,98257.66
2019-01-26T15:22:14.071Z,98260.27
2019-01-26T15:24:40.726Z,98266.85
2019-01-26T15:27:07.496Z,98258.63
2019-01-26T15:29:36.695Z,98262.28
2019-01-26T15:32:03.907Z,98258.89
2019-01-26T15:34:31.071Z,98260.93
2019-01-26T15:36:58.200Z,98256.84
2019-01-26T15:39:25.337Z,98258.16
2019-01-26T15:41:52.046Z,98259.02
2019-01-26T15:44:19.107Z,98254.47
2019-01-26T15:46:46.266Z,98257.20
2019-01-26T15:49:13.408Z,98253.64
2019-01-26T15:51:41.082Z,98255.33
2019-01-26T15:54:08.260Z,98251.84
2019-01-26T15:56:35.406Z,98259.30
2019-01-26T15:59:02.148Z,98255.94
2019-01-26T16:01:29.799Z,98256.77
2019-01-26T16:03:56.926Z,98251.89
2019-01-26T16:06:23.646Z,98256.77
2019-01-26T16:08:50.719Z,98260.43
2019-01-26T16:11:17.412Z,98260.77
2019-01-26T16:13:44.178Z,98268.11
2019-01-26T16:16:11.257Z,98267.47
2019-01-26T16:18:38.604Z,98268.96
2019-01-26T16:21:05.802Z,98265.98
2019-01-26T16:23:32.508Z,98269.28
2019-01-26T16:25:59.377Z,98264.51
2019-01-26T16:28:26.493Z,98261.65
2019-01-26T16:30:53.689Z,98264.00
2019-01-26T16:33:21.425Z,98261.23
2019-01-26T16:35:49.195Z,98265.02
2019-01-26T16:38:16.292Z,98259.48
2019-01-26T16:40:42.953Z,98266.73
2019-01-26T16:43:10.160Z,98261.25
2019-01-26T16:45:37.786Z,98260.43
2019-01-26T16:48:04.639Z,98257.63
2019-01-26T16:50:31.765Z,98259.15
2019-01-26T16:52:58.898Z,98265.52
2019-01-26T16:55:26.154Z,98267.27
2019-01-26T16:57:53.397Z,98271.66
2019-01-26T17:00:20.457Z,98266.55
2019-01-26T17:02:48.170Z,98269.18
2019-01-26T17:05:16.016Z,98267.11
2019-01-26T17:07:43.110Z,98267.05
2019-01-26T17:10:10.853Z,98272.18
2019-01-26T17:12:38.081Z,98272.58
2019-01-26T17:15:05.770Z,98274.27
2019-01-26T17:17:32.897Z,98272.78
2019-01-26T17:20:02.310Z,98269.42
2019-01-26T17:22:31.062Z,98271.17
2019-01-26T17:24:58.855Z,98266.22
2019-01-26T17:27:25.958Z,98274.30
2019-01-26T17:30:09.324Z,98273.74
2019-01-26T17:32:28.155Z,98275.39
2019-01-26T17:34:55.828Z,98279.34
2019-01-26T17:37:22.963Z,98277.77
2019-01-26T17:39:49.634Z,98276.34
2019-01-26T17:42:16.432Z,98283.59
2019-01-26T17:44:43.501Z,98279.16
2019-01-26T17:47:10.230Z,98286.83
2019-01-26T17:49:37.393Z,98297.01
2019-01-26T17:52:04.116Z,98294.37
2019-01-26T17:54:30.795Z,98295.98
2019-01-26T17:56:57.527Z,98290.71
2019-01-26T17:59:24.640Z,98293.67
2019-01-26T18:01:51.405Z,98293.34
2019-01-26T18:04:18.577Z,98292.95
2019-01-26T18:06:45.334Z,98298.89
2019-01-26T18:09:12.115Z,98297.44
2019-01-26T18:11:39.174Z,98283.16
2019-01-26T18:14:05.939Z,98289.47
2019-01-26T18:16:32.669Z,98284.79
2019-01-26T18:18:59.315Z,98284.46
2019-01-26T18:21:26.047Z,98289.61
2019-01-26T18:23:53.114Z,98283.18
2019-01-26T18:26:20.245Z,98290.89
2019-01-26T18:28:47.020Z,98294.85
2019-01-26T18:31:14.134Z,98294.36
2019-01-26T18:33:40.855Z,98290.27
2019-01-26T18:36:07.578Z,98290.44
2019-01-26T18:38:34.312Z,98289.48
2019-01-26T18:41:00.961Z,98287.34
2019-01-26T18:43:28.156Z,98294.80
2019-01-26T18:45:55.083Z,98292.48
2019-01-26T18:48:22.147Z,98295.89
2019-01-26T18:50:55.895Z,98302.38
2019-01-26T18:53:18.574Z,98301.95
2019-01-26T18:55:45.763Z,98305.15
2019-01-26T18:58:12.955Z,98302.84
2019-01-26T19:00:39.670Z,98303.31
2019-01-26T19:03:06.473Z,98295.89
2019-01-26T19:05:33.152Z,98297.38
2019-01-26T19:07:59.872Z,98293.45
2019-01-26T19:10:26.864Z,98290.72
2019-01-26T19:12:54.247Z,98289.69
2019-01-26T19:15:22.621Z,98289.20
2019-01-26T19:18:01.739Z,98288.70
2019-01-26T19:20:18.094Z,98288.70
2019-01-26T19:22:44.873Z,98286.88
2019-01-26T19:25:11.898Z,98282.70
2019-01-26T19:27:45.181Z,98283.85
2019-01-26T19:30:11.927Z,98286.26
2019-01-26T19:32:39.863Z,98277.05
2019-01-26T19:35:07.163Z,98273.36
2019-01-26T19:37:34.397Z,98270.92
2019-01-26T19:40:01.172Z,98276.03
2019-01-26T19:42:27.847Z,98275.34
2019-01-26T19:44:56.503Z,98270.91
2019-01-26T19:47:23.580Z,98274.48
2019-01-26T19:49:50.754Z,98267.64
2019-01-26T19:52:17.498Z,98270.77
2019-01-26T19:54:44.478Z,98263.84
2019-01-26T19:57:11.207Z,98261.14
2019-01-26T19:59:37.937Z,98253.22
2019-01-26T20:02:04.598Z,98251.17
2019-01-26T20:04:31.296Z,98254.23
2019-01-26T20:06:58.069Z,98255.00
2019-01-26T20:09:24.780Z,98256.15
2019-01-26T20:11:51.457Z,98257.89
2019-01-26T20:14:20.844Z,98262.61
2019-01-26T20:16:47.945Z,98260.80
2019-01-26T20:19:15.103Z,98252.71
2019-01-26T20:21:42.265Z,98257.69
2019-01-26T20:24:09.444Z,98257.52
2019-01-26T20:26:36.546Z,98258.02
2019-01-26T20:29:03.296Z,98258.58
2019-01-26T20:31:30.109Z,98256.93
2019-01-26T20:33:57.312Z,98260.95
2019-01-26T20:36:23.992Z,98264.95
2019-01-26T20:38:51.064Z,98262.54
2019-01-26T20:41:18.385Z,98262.47
2019-01-26T20:43:45.070Z,98259.01
2019-01-26T20:46:11.876Z,98253.59
2019-01-26T20:48:38.666Z,98254.67
2019-01-26T20:51:05.355Z,98254.08
2019-01-26T20:53:33.085Z,98256.72
2019-01-26T20:56:00.311Z,98255.99
2019-01-26T20:58:27.485Z,98259.05
2019-01-26T21:00:54.732Z,98258.56
2019-01-26T21:03:21.684Z,98257.50
2019-01-26T21:05:48.400Z,98262.61
2019-01-26T21:08:18.119Z,98250.90
2019-01-26T21:10:44.804Z,98257.59
2019-01-26T21:13:16.239Z,98257.09
2019-01-26T21:15:40.352Z,98252.48
2019-01-26T21:18:07.006Z,98265.70
2019-01-26T21:20:33.716Z,98265.38
2019-01-26T21:23:00.451Z,98260.02
2019-01-26T21:25:28.389Z,98260.76
2019-01-26T21:27:56.000Z,98254.22
2019-01-26T21:30:23.141Z,98258.11
2019-01-26T21:32:50.226Z,98262.27
2019-01-26T21:35:16.964Z,98251.93
2019-01-26T21:37:43.686Z,98252.76
2019-01-26T21:40:10.755Z,98250.38
2019-01-26T21:42:37.779Z,98245.92
2019-01-26T21:45:04.973Z,98242.71
2019-01-26T21:47:31.974Z,98240.56
2019-01-26T21:49:59.031Z,98242.29
2019-01-26T21:52:25.731Z,98235.28
2019-01-26T21:54:53.319Z,98239.01
2019-01-26T21:57:20.329Z,98232.23
2019-01-26T21:59:47.452Z,98239.77
2019-01-26T22:02:14.591Z,98238.77
2019-01-26T22:04:41.876Z,98237.88
2019-01-26T22:07:08.791Z,98242.19
2019-01-26T22:09:37.058Z,98241.13
2019-01-26T22:12:04.649Z,98241.78
2019-01-26T22:14:31.420Z,98235.27
2019-01-26T22:16:58.626Z,98230.06
2019-01-26T22:19:25.791Z,98232.13
2019-01-26T22:21:52.510Z,98228.57
2019-01-26T22:24:19.228Z,98232.39
2019-01-26T22:26:46.066Z,98231.30
2019-01-26T22:29:13.242Z,98231.66
2019-01-26T22:31:40.402Z,98227.60
2019-01-26T22:34:07.545Z,98225.52
2019-01-26T22:36:34.411Z,98216.37
2019-01-26T22:40:31.658Z,98218.03
2019-01-26T22:43:06.942Z,98212.08
2019-01-26T22:45:42.331Z,98206.70
2019-01-26T22:48:15.858Z,98208.05
2019-01-26T22:50:49.679Z,98202.35
2019-01-26T22:53:24.526Z,98211.17
2019-01-26T22:55:59.924Z,98211.92
2019-01-26T22:58:35.017Z,98208.03
2019-01-26T23:01:30.642Z,98203.11
2019-01-26T23:05:00.974Z,98203.02
2019-01-26T23:08:02.352Z,98202.76
2019-01-26T23:11:35.282Z,98201.44
2019-01-26T23:14:49.189Z,98202.26
2019-01-26T23:18:29.470Z,98200.96
2019-01-26T23:21:54.646Z,98199.55
2019-01-26T23:25:34.346Z,98184.59
2019-01-26T23:29:07.141Z,98181.62
2019-01-26T23:31:42.091Z,98177.59
2019-01-26T23:34:16.472Z,98185.77
2019-01-26T23:36:50.991Z,98181.07
2019-01-26T23:39:25.010Z,98184.61
2019-01-26T23:42:00.032Z,98185.03
2019-01-26T23:44:34.967Z,98175.45
2019-01-26T23:47:09.529Z,98178.02
2019-01-26T23:49:44.359Z,98172.48
2019-01-26T23:52:18.300Z,98177.86
2019-01-26T23:54:53.763Z,98177.19
2019-01-26T23:57:27.591Z,98179.50
